Time;durP1;ratioP1;P1;durP2;ratioP2;P2;SDS_P1;SDS_P2;PMS_P1;PMS_P2;Temp;Humidity;BMP_temperature;BMP_pressure;BME280_temperature;BME280_humidity;BME280_pressure;Samples;Min_cycle;Max_cycle;Signal;HPM_P1;HPM_P2
2021/11/07 00:00:29;;;;;;;9.60;6.93;;;;;;;;;;5098279;28;20451;-72
2021/11/07 00:03:05;;;;;;;7.47;4.30;;;;;;;;;;5098456;28;20545;-72
2021/11/07 00:05:35;;;;;;;6.67;6.00;;;;;;;;;;5097643;28;20518;-72
2021/11/07 00:08:18;;;;;;;8.90;6.47;;;;;;;;;;5098447;28;20533;-71
2021/11/07 00:10:49;;;;;;;7.97;5.77;;;;;;;;;;5097253;28;20581;-72
2021/11/07 00:13:24;;;;;;;7.20;5.80;;;;;;;;;;5105511;28;20443;-72
2021/11/07 00:15:52;;;;;;;8.67;6.93;;;;;;;;;;5111461;28;20466;-71
2021/11/07 00:18:21;;;;;;;6.07;5.20;;;;;;;;;;5103808;28;20739;-69
2021/11/07 00:20:54;;;;;;;7.70;5.20;;;;;;;;;;5098177;28;20479;-72
2021/11/07 00:23:33;;;;;;;8.93;5.77;;;;;;;;;;5098178;28;20502;-72
2021/11/07 00:26:09;;;;;;;7.90;4.60;;;;;;;;;;5097725;28;20515;-70
2021/11/07 00:28:40;;;;;;;7.00;5.83;;;;;;;;;;5097753;28;20700;-71
2021/11/07 00:31:18;;;;;;;10.03;7.23;;;;;;;;;;5097576;28;20439;-71
2021/11/07 00:34:08;;;;;;;6.60;4.83;;;;;;;;;;5097444;28;20451;-71
2021/11/07 00:36:46;;;;;;;5.90;5.03;;;;;;;;;;5097257;28;20497;-71
2021/11/07 00:39:17;;;;;;;6.23;5.63;;;;;;;;;;5097533;28;20440;-71
2021/11/07 00:41:53;;;;;;;8.20;4.70;;;;;;;;;;5111186;28;20451;-72
2021/11/07 00:44:29;;;;;;;4.40;2.93;;;;;;;;;;5117241;28;20450;-72
2021/11/07 00:46:59;;;;;;;8.23;5.80;;;;;;;;;;5117435;28;20450;-71
2021/11/07 00:49:33;;;;;;;3.50;3.13;;;;;;;;;;5116228;28;20475;-72
2021/11/07 00:52:18;;;;;;;8.27;7.57;;;;;;;;;;5117758;28;20827;-73
2021/11/07 00:55:01;;;;;;;8.70;6.40;;;;;;;;;;5117917;28;20522;-72
2021/11/07 00:57:40;;;;;;;6.80;5.23;;;;;;;;;;5096892;28;20489;-72
2021/11/07 01:00:14;;;;;;;5.70;5.00;;;;;;;;;;5097109;28;20455;-72
2021/11/07 01:02:42;;;;;;;6.77;6.03;;;;;;;;;;5097266;28;20438;-72
2021/11/07 01:05:14;;;;;;;8.03;5.97;;;;;;;;;;5097004;28;20452;-72
2021/11/07 01:07:42;;;;;;;7.67;4.87;;;;;;;;;;5097076;28;20463;-72
2021/11/07 01:10:10;;;;;;;10.57;7.70;;;;;;;;;;5096547;28;20499;-72
2021/11/07 01:12:40;;;;;;;7.63;6.90;;;;;;;;;;5096596;28;20828;-72
2021/11/07 01:15:12;;;;;;;7.30;5.47;;;;;;;;;;5097317;28;20509;-72
2021/11/07 01:17:41;;;;;;;8.03;7.23;;;;;;;;;;5095923;28;20466;-73
2021/11/07 01:20:11;;;;;;;7.40;6.27;;;;;;;;;;5096385;28;20456;-70
2021/11/07 01:22:53;;;;;;;5.67;5.20;;;;;;;;;;5096031;28;20911;-71
2021/11/07 01:25:22;;;;;;;6.73;5.83;;;;;;;;;;5096358;28;20447;-72
2021/11/07 01:27:52;;;;;;;6.67;5.43;;;;;;;;;;5108771;28;20532;-72
2021/11/07 01:30:23;;;;;;;6.00;5.50;;;;;;;;;;5117037;28;20492;-72
2021/11/07 01:32:58;;;;;;;5.60;3.73;;;;;;;;;;5118150;28;20454;-72
2021/11/07 01:35:31;;;;;;;6.00;4.43;;;;;;;;;;5116413;28;20454;-72
2021/11/07 01:38:11;;;;;;;4.50;4.10;;;;;;;;;;5117853;28;20508;-73
2021/11/07 01:40:43;;;;;;;4.93;4.40;;;;;;;;;;5116678;28;20778;-71
2021/11/07 01:43:15;;;;;;;6.00;4.57;;;;;;;;;;5117163;28;20734;-71
2021/11/07 01:45:46;;;;;;;5.67;4.63;;;;;;;;;;5112785;28;20805;-71
2021/11/07 01:48:18;;;;;;;5.80;5.07;;;;;;;;;;5104389;28;20513;-71
2021/11/07 01:50:52;;;;;;;5.50;4.50;;;;;;;;;;5103941;28;20597;-73
2021/11/07 01:53:23;;;;;;;6.17;5.30;;;;;;;;;;5099846;28;20538;-71
2021/11/07 01:55:52;;;;;;;5.47;4.97;;;;;;;;;;5097546;28;20459;-71
2021/11/07 01:58:21;;;;;;;3.87;3.10;;;;;;;;;;5098855;28;20567;-72
2021/11/07 02:00:50;;;;;;;5.73;5.13;;;;;;;;;;5107186;28;20454;-70
2021/11/07 02:03:18;;;;;;;6.93;3.37;;;;;;;;;;5096877;28;20559;-72
2021/11/07 02:05:47;;;;;;;5.90;5.40;;;;;;;;;;5107703;28;20784;-72
2021/11/07 02:08:15;;;;;;;5.13;4.63;;;;;;;;;;5114766;28;20461;-71
2021/11/07 02:10:44;;;;;;;9.10;7.00;;;;;;;;;;5115988;28;20487;-72
2021/11/07 02:13:11;;;;;;;7.67;6.60;;;;;;;;;;5116669;28;20451;-72
2021/11/07 02:15:41;;;;;;;5.10;4.40;;;;;;;;;;5105953;28;20546;-71
2021/11/07 02:18:09;;;;;;;9.13;3.70;;;;;;;;;;5095816;28;20466;-71
2021/11/07 02:20:40;;;;;;;5.17;4.67;;;;;;;;;;5097455;28;20448;-72
2021/11/07 02:23:13;;;;;;;4.87;4.43;;;;;;;;;;5096957;28;20521;-70
2021/11/07 02:25:43;;;;;;;4.07;3.63;;;;;;;;;;5097743;28;20460;-71
2021/11/07 02:28:11;;;;;;;4.83;3.57;;;;;;;;;;5111469;28;20447;-71
2021/11/07 02:30:41;;;;;;;2.83;2.60;;;;;;;;;;5098451;28;20559;-70
2021/11/07 02:33:10;;;;;;;5.30;3.77;;;;;;;;;;5097263;28;20444;-70
2021/11/07 02:35:39;;;;;;;6.20;4.77;;;;;;;;;;5096933;28;20459;-71
2021/11/07 02:38:07;;;;;;;7.40;6.40;;;;;;;;;;5097016;28;20444;-69
2021/11/07 02:40:35;;;;;;;5.40;4.93;;;;;;;;;;5096221;28;20455;-70
2021/11/07 02:43:03;;;;;;;5.87;5.33;;;;;;;;;;5100114;28;20461;-69
2021/11/07 02:45:31;;;;;;;6.67;4.90;;;;;;;;;;5117837;28;20543;-70
2021/11/07 02:48:00;;;;;;;5.73;4.90;;;;;;;;;;5116959;28;20798;-70
2021/11/07 02:50:28;;;;;;;3.50;3.07;;;;;;;;;;5118795;28;20482;-70
2021/11/07 02:52:57;;;;;;;4.13;3.77;;;;;;;;;;5117298;28;20569;-70
2021/11/07 02:55:26;;;;;;;6.63;5.30;;;;;;;;;;5117940;28;20868;-70
2021/11/07 02:57:55;;;;;;;5.47;4.97;;;;;;;;;;5116777;28;20726;-70
2021/11/07 03:00:23;;;;;;;4.83;3.73;;;;;;;;;;5116361;28;20512;-70
2021/11/07 03:02:52;;;;;;;3.70;3.40;;;;;;;;;;5117488;28;20447;-71
2021/11/07 03:05:23;;;;;;;3.63;3.27;;;;;;;;;;5102501;28;20538;-71
2021/11/07 03:07:52;;;;;;;4.03;2.97;;;;;;;;;;5095916;28;20447;-71
2021/11/07 03:10:22;;;;;;;5.50;5.00;;;;;;;;;;5096218;28;20487;-70
2021/11/07 03:13:02;;;;;;;3.60;3.20;;;;;;;;;;5106902;28;20443;-71
2021/11/07 03:15:31;;;;;;;4.80;3.90;;;;;;;;;;5107745;28;20609;-71
2021/11/07 03:17:59;;;;;;;3.87;3.47;;;;;;;;;;5099789;28;20459;-71
2021/11/07 03:20:27;;;;;;;6.77;5.00;;;;;;;;;;5099634;28;20455;-70
2021/11/07 03:22:56;;;;;;;5.10;3.53;;;;;;;;;;5099976;28;20447;-70
2021/11/07 03:25:25;;;;;;;2.87;2.57;;;;;;;;;;5100669;28;20513;-71
2021/11/07 03:27:54;;;;;;;3.70;3.30;;;;;;;;;;5100001;28;20844;-69
2021/11/07 03:30:32;;;;;;;3.57;2.80;;;;;;;;;;5100055;28;20487;-71
2021/11/07 03:33:11;;;;;;;5.30;4.07;;;;;;;;;;5099704;28;20443;-71
2021/11/07 03:35:38;;;;;;;3.63;3.20;;;;;;;;;;5100398;28;20462;-71
2021/11/07 03:38:06;;;;;;;2.13;1.73;;;;;;;;;;5100134;28;20561;-71
2021/11/07 03:40:36;;;;;;;2.77;2.50;;;;;;;;;;5099656;28;20989;-71
2021/11/07 03:43:04;;;;;;;2.83;2.30;;;;;;;;;;5099930;28;20545;-71
2021/11/07 03:45:32;;;;;;;6.47;3.03;;;;;;;;;;5099751;28;20520;-71
2021/11/07 03:48:01;;;;;;;3.60;3.07;;;;;;;;;;5100503;28;20531;-71
2021/11/07 03:50:29;;;;;;;1.60;1.20;;;;;;;;;;5099489;28;20488;-71
2021/11/07 03:52:57;;;;;;;3.90;2.13;;;;;;;;;;5099171;28;20463;-71
2021/11/07 03:55:24;;;;;;;2.50;2.10;;;;;;;;;;5099628;28;20468;-71
2021/11/07 03:57:57;;;;;;;2.00;1.40;;;;;;;;;;5099163;28;20451;-71
2021/11/07 04:00:25;;;;;;;3.10;1.80;;;;;;;;;;5099291;28;20462;-71
2021/11/07 04:02:53;;;;;;;2.03;1.30;;;;;;;;;;5099384;28;20448;-71
2021/11/07 04:05:23;;;;;;;1.97;1.73;;;;;;;;;;5117214;28;20459;-71
2021/11/07 04:07:57;;;;;;;1.70;1.17;;;;;;;;;;5119232;28;20446;-72
2021/11/07 04:10:25;;;;;;;2.00;1.60;;;;;;;;;;5119463;28;20532;-71
2021/11/07 04:12:56;;;;;;;2.53;1.80;;;;;;;;;;5120264;28;20465;-71
2021/11/07 04:15:25;;;;;;;2.60;1.43;;;;;;;;;;5119272;28;20509;-71
2021/11/07 04:17:53;;;;;;;2.07;1.43;;;;;;;;;;5119269;28;20519;-71
2021/11/07 04:20:21;;;;;;;1.87;1.23;;;;;;;;;;5119475;28;20466;-70
2021/11/07 04:22:49;;;;;;;32.83;2.50;;;;;;;;;;5120086;28;20473;-71
2021/11/07 04:25:17;;;;;;;2.43;1.83;;;;;;;;;;5114490;28;20451;-71
2021/11/07 04:27:51;;;;;;;2.57;2.27;;;;;;;;;;5098048;28;20455;-69
2021/11/07 04:30:26;;;;;;;3.57;2.27;;;;;;;;;;5101294;28;20506;-71
2021/11/07 04:33:04;;;;;;;2.77;2.27;;;;;;;;;;5098263;28;20489;-69
2021/11/07 04:35:33;;;;;;;3.43;2.30;;;;;;;;;;5097621;28;20556;-70
2021/11/07 04:38:00;;;;;;;3.30;2.47;;;;;;;;;;5098057;28;20689;-70
2021/11/07 04:40:28;;;;;;;2.53;2.00;;;;;;;;;;5117013;28;20855;-70
2021/11/07 04:42:57;;;;;;;2.60;2.20;;;;;;;;;;5117548;28;20877;-71
2021/11/07 04:45:27;;;;;;;2.37;1.90;;;;;;;;;;5118286;28;20844;-70
2021/11/07 04:47:55;;;;;;;2.80;2.10;;;;;;;;;;5103024;28;20463;-70
2021/11/07 04:50:23;;;;;;;2.10;1.70;;;;;;;;;;5097294;28;20550;-71
2021/11/07 04:52:51;;;;;;;3.97;2.77;;;;;;;;;;5098657;28;20851;-71
2021/11/07 04:55:19;;;;;;;3.30;2.13;;;;;;;;;;5097829;28;20448;-71
2021/11/07 04:57:47;;;;;;;4.27;3.33;;;;;;;;;;5098057;28;20470;-71
2021/11/07 05:00:19;;;;;;;3.00;2.70;;;;;;;;;;5098745;28;20888;-71
2021/11/07 05:02:51;;;;;;;2.40;1.83;;;;;;;;;;5097755;28;20463;-70
2021/11/07 05:05:22;;;;;;;2.70;1.90;;;;;;;;;;5097286;28;20444;-70
2021/11/07 05:07:51;;;;;;;4.83;3.30;;;;;;;;;;5096892;28;20458;-70
2021/11/07 05:10:19;;;;;;;4.03;2.23;;;;;;;;;;5097401;28;20475;-72
2021/11/07 05:12:47;;;;;;;2.80;2.20;;;;;;;;;;5096594;28;20456;-71
2021/11/07 05:15:15;;;;;;;3.23;2.10;;;;;;;;;;5097725;28;20554;-72
2021/11/07 05:17:43;;;;;;;2.80;1.83;;;;;;;;;;5096975;28;20462;-70
2021/11/07 05:20:14;;;;;;;6.07;3.03;;;;;;;;;;5097057;28;20902;-70
2021/11/07 05:22:43;;;;;;;5.47;2.97;;;;;;;;;;5096695;28;20590;-70
2021/11/07 05:25:13;;;;;;;3.20;2.50;;;;;;;;;;5096229;28;20542;-69
2021/11/07 05:27:41;;;;;;;3.80;2.27;;;;;;;;;;5097172;28;20492;-71
2021/11/07 05:30:10;;;;;;;4.07;2.93;;;;;;;;;;5096994;28;20460;-71
2021/11/07 05:32:38;;;;;;;5.77;2.47;;;;;;;;;;5096506;28;20483;-71
2021/11/07 05:35:06;;;;;;;3.43;3.07;;;;;;;;;;5096062;28;20456;-72
2021/11/07 05:37:36;;;;;;;4.50;2.50;;;;;;;;;;5096029;28;20528;-72
2021/11/07 05:40:05;;;;;;;3.30;1.93;;;;;;;;;;5096311;28;20469;-71
2021/11/07 05:42:32;;;;;;;4.30;2.47;;;;;;;;;;5096731;28;20483;-72
2021/11/07 05:45:00;;;;;;;6.03;3.77;;;;;;;;;;5096484;28;20452;-71
2021/11/07 05:47:28;;;;;;;4.47;3.50;;;;;;;;;;5096850;28;20459;-72
2021/11/07 05:49:56;;;;;;;4.33;2.80;;;;;;;;;;5097532;28;20464;-72
2021/11/07 05:52:24;;;;;;;3.10;2.10;;;;;;;;;;5096137;28;20483;-72
2021/11/07 05:54:53;;;;;;;2.27;1.90;;;;;;;;;;5096525;28;20456;-72
2021/11/07 05:57:21;;;;;;;3.87;2.10;;;;;;;;;;5096060;28;20518;-72
2021/11/07 05:59:48;;;;;;;5.87;2.57;;;;;;;;;;5094802;28;20467;-72
2021/11/07 06:02:16;;;;;;;2.90;1.77;;;;;;;;;;5095701;28;20443;-70
2021/11/07 06:04:44;;;;;;;5.70;1.27;;;;;;;;;;5096037;28;20755;-72
2021/11/07 06:07:13;;;;;;;6.03;1.67;;;;;;;;;;5094940;28;20794;-72
2021/11/07 06:09:41;;;;;;;4.90;2.33;;;;;;;;;;5095618;28;20513;-72
2021/11/07 06:12:12;;;;;;;1.83;1.20;;;;;;;;;;5095505;28;20500;-71
2021/11/07 06:14:40;;;;;;;3.17;1.47;;;;;;;;;;5096495;28;20455;-71
2021/11/07 06:17:09;;;;;;;3.60;1.40;;;;;;;;;;5095572;28;20860;-71
2021/11/07 06:19:37;;;;;;;3.20;1.30;;;;;;;;;;5096338;28;20835;-71
2021/11/07 06:22:05;;;;;;;4.73;1.50;;;;;;;;;;5096475;28;20463;-71
2021/11/07 06:24:33;;;;;;;4.60;2.10;;;;;;;;;;5095742;28;20455;-71
2021/11/07 06:27:02;;;;;;;5.13;1.90;;;;;;;;;;5096730;28;20463;-71
2021/11/07 06:29:31;;;;;;;15.63;2.27;;;;;;;;;;5094571;28;20451;-71
2021/11/07 06:31:59;;;;;;;6.93;2.27;;;;;;;;;;5096469;28;20805;-71
2021/11/07 06:34:28;;;;;;;9.80;4.43;;;;;;;;;;5096889;28;20540;-70
2021/11/07 06:36:56;;;;;;;4.20;2.10;;;;;;;;;;5095493;28;20447;-71
2021/11/07 06:39:24;;;;;;;5.03;1.83;;;;;;;;;;5095883;28;20585;-71
2021/11/07 06:41:52;;;;;;;7.00;3.03;;;;;;;;;;5094363;28;20448;-70
2021/11/07 06:44:20;;;;;;;3.00;1.30;;;;;;;;;;5094953;28;20471;-70
2021/11/07 06:46:52;;;;;;;6.97;2.60;;;;;;;;;;5095266;28;20448;-70
2021/11/07 06:49:19;;;;;;;11.10;3.40;;;;;;;;;;5105235;28;20463;-71
2021/11/07 06:51:47;;;;;;;4.27;2.23;;;;;;;;;;5120022;28;20494;-70
2021/11/07 06:54:15;;;;;;;6.47;2.10;;;;;;;;;;5117948;28;20469;-69
2021/11/07 06:56:43;;;;;;;5.73;2.20;;;;;;;;;;5119831;28;20578;-70
2021/11/07 06:59:11;;;;;;;7.37;2.07;;;;;;;;;;5119479;28;20454;-70
2021/11/07 07:01:39;;;;;;;4.23;2.97;;;;;;;;;;5119189;28;20457;-69
2021/11/07 07:04:09;;;;;;;9.00;1.93;;;;;;;;;;5119454;28;20557;-71
2021/11/07 07:06:37;;;;;;;9.47;2.00;;;;;;;;;;5118485;28;20449;-71
2021/11/07 07:09:07;;;;;;;3.83;2.87;;;;;;;;;;5118631;28;20461;-69
2021/11/07 07:11:39;;;;;;;6.90;1.60;;;;;;;;;;5118647;28;20482;-71
2021/11/07 07:14:09;;;;;;;8.70;1.83;;;;;;;;;;5118401;28;20456;-71
2021/11/07 07:16:49;;;;;;;7.90;2.40;;;;;;;;;;5107373;28;20536;-71
2021/11/07 07:22:36;;;;;;;10.70;2.17;;;;;;;;;;5066874;28;20431;-71
2021/11/07 07:28:02;;;;;;;6.60;2.20;;;;;;;;;;5084254;28;20419;-71
2021/11/07 07:30:38;;;;;;;5.93;1.20;;;;;;;;;;5098907;28;20451;-71
2021/11/07 07:36:00;;;;;;;11.30;3.07;;;;;;;;;;5096736;28;20438;-71
2021/11/07 07:38:29;;;;;;;4.47;2.30;;;;;;;;;;5100737;28;20447;-71
2021/11/07 07:40:57;;;;;;;8.60;2.37;;;;;;;;;;5106423;28;20688;-71
2021/11/07 07:43:30;;;;;;;7.20;2.20;;;;;;;;;;5115677;28;20531;-70
2021/11/07 07:46:02;;;;;;;10.93;2.37;;;;;;;;;;5110056;28;20762;-72
2021/11/07 07:48:38;;;;;;;6.23;1.73;;;;;;;;;;5097599;28;20460;-70
2021/11/07 07:51:09;;;;;;;6.57;2.23;;;;;;;;;;5098345;28;20447;-69
2021/11/07 07:53:36;;;;;;;4.77;2.00;;;;;;;;;;5105169;28;20538;-71
2021/11/07 07:56:05;;;;;;;6.90;2.00;;;;;;;;;;5114641;28;20474;-71
2021/11/07 07:58:33;;;;;;;5.53;2.93;;;;;;;;;;5097205;28;20444;-69
2021/11/07 08:01:01;;;;;;;3.47;2.00;;;;;;;;;;5107911;28;20444;-71
2021/11/07 08:03:29;;;;;;;13.97;2.60;;;;;;;;;;5107572;28;20455;-71
2021/11/07 08:05:58;;;;;;;10.53;3.30;;;;;;;;;;5100595;28;20494;-68
2021/11/07 08:08:28;;;;;;;8.30;2.53;;;;;;;;;;5098265;28;20444;-70
2021/11/07 08:10:59;;;;;;;4.67;2.00;;;;;;;;;;5105288;28;20771;-70
2021/11/07 08:13:28;;;;;;;6.40;2.40;;;;;;;;;;5100964;28;20558;-69
2021/11/07 08:15:58;;;;;;;7.60;1.97;;;;;;;;;;5111640;28;20459;-70
2021/11/07 08:18:26;;;;;;;2.77;1.53;;;;;;;;;;5110025;28;20458;-69
2021/11/07 08:20:55;;;;;;;6.40;3.10;;;;;;;;;;5117201;28;20519;-70
2021/11/07 08:23:29;;;;;;;4.47;1.97;;;;;;;;;;5112564;28;20451;-69
2021/11/07 08:25:58;;;;;;;9.40;1.77;;;;;;;;;;5098337;28;20904;-69
2021/11/07 08:28:31;;;;;;;5.17;2.63;;;;;;;;;;5098155;28;20850;-70
2021/11/07 08:31:06;;;;;;;12.17;3.57;;;;;;;;;;5097461;28;20474;-70
2021/11/07 08:33:34;;;;;;;5.70;2.43;;;;;;;;;;5098427;28;20483;-69
2021/11/07 08:36:08;;;;;;;5.37;1.50;;;;;;;;;;5096875;28;20450;-69
2021/11/07 08:38:45;;;;;;;13.37;3.73;;;;;;;;;;5098361;28;20447;-68
2021/11/07 08:41:22;;;;;;;13.57;2.83;;;;;;;;;;5108241;28;20454;-68
2021/11/07 09:00:42;;;;;;;8.97;3.40;;;;;;;;;;5116220;28;20556;-68
2021/11/07 09:03:19;;;;;;;15.77;3.47;;;;;;;;;;5096235;28;20442;-69
2021/11/07 09:05:56;;;;;;;7.27;3.13;;;;;;;;;;5097318;28;20451;-70
2021/11/07 09:08:25;;;;;;;5.53;2.20;;;;;;;;;;5097168;28;20516;-70
2021/11/07 09:10:54;;;;;;;6.03;2.20;;;;;;;;;;5095441;28;20591;-69
2021/11/07 09:13:23;;;;;;;7.10;2.50;;;;;;;;;;5096385;28;20564;-70
2021/11/07 09:15:53;;;;;;;9.53;4.70;;;;;;;;;;5096734;28;20554;-69
2021/11/07 09:18:21;;;;;;;5.83;2.63;;;;;;;;;;5099762;28;20466;-69
2021/11/07 09:20:59;;;;;;;9.97;3.00;;;;;;;;;;5115220;28;20447;-70
2021/11/07 09:23:36;;;;;;;9.90;3.40;;;;;;;;;;5117041;28;20465;-70
2021/11/07 09:26:27;;;;;;;5.77;2.60;;;;;;;;;;5101939;28;20861;-70
2021/11/07 09:29:00;;;;;;;30.27;2.53;;;;;;;;;;5108408;28;20447;-70
2021/11/07 09:31:35;;;;;;;7.50;2.40;;;;;;;;;;5116289;28;20867;-70
2021/11/07 09:34:14;;;;;;;8.90;4.57;;;;;;;;;;5108747;28;20518;-69
2021/11/07 09:36:45;;;;;;;14.63;7.13;;;;;;;;;;5096485;28;20863;-69
2021/11/07 09:39:23;;;;;;;8.53;2.40;;;;;;;;;;5099408;28;21349;-69
2021/11/07 09:42:04;;;;;;;4.13;2.40;;;;;;;;;;5102873;28;20791;-71
2021/11/07 09:44:39;;;;;;;7.87;3.47;;;;;;;;;;5105277;28;20454;-70
2021/11/07 09:47:14;;;;;;;5.83;2.70;;;;;;;;;;5111011;28;20450;-70
2021/11/07 09:49:46;;;;;;;10.37;4.17;;;;;;;;;;5110850;28;20455;-70
2021/11/07 09:52:18;;;;;;;10.73;2.97;;;;;;;;;;5101807;28;20479;-69
2021/11/07 09:54:52;;;;;;;8.17;1.80;;;;;;;;;;5104086;28;20459;-69
2021/11/07 09:57:23;;;;;;;17.40;4.90;;;;;;;;;;5103250;28;20911;-70
2021/11/07 09:59:56;;;;;;;14.33;2.90;;;;;;;;;;5096519;28;20446;-70
2021/11/07 10:02:35;;;;;;;5.10;3.50;;;;;;;;;;5109757;28;20465;-71
2021/11/07 10:05:04;;;;;;;11.10;4.63;;;;;;;;;;5115376;28;20446;-71
2021/11/07 10:07:35;;;;;;;8.37;3.60;;;;;;;;;;5115661;28;20458;-69
2021/11/07 10:10:38;;;;;;;11.43;3.80;;;;;;;;;;5117108;28;20458;-69
2021/11/07 10:13:13;;;;;;;7.43;2.40;;;;;;;;;;5106935;28;20759;-70
2021/11/07 10:15:47;;;;;;;9.53;3.70;;;;;;;;;;5113161;28;20464;-70
2021/11/07 10:18:24;;;;;;;14.30;3.80;;;;;;;;;;5116784;28;20500;-69
2021/11/07 10:20:56;;;;;;;9.57;3.33;;;;;;;;;;5111302;28;20867;-71
2021/11/07 10:23:31;;;;;;;9.90;2.10;;;;;;;;;;5105395;28;20479;-72
2021/11/07 10:26:04;;;;;;;17.20;3.57;;;;;;;;;;5101450;28;20561;-70
2021/11/07 10:28:40;;;;;;;5.97;3.63;;;;;;;;;;5114466;28;20434;-71
2021/11/07 10:31:15;;;;;;;15.93;3.57;;;;;;;;;;5100073;28;20451;-71
2021/11/07 10:37:16;;;;;;;9.50;3.00;;;;;;;;;;5117636;28;20460;-71
2021/11/07 10:42:49;;;;;;;8.20;2.30;;;;;;;;;;5094292;28;20522;-70
2021/11/07 10:45:23;;;;;;;7.23;2.23;;;;;;;;;;5096737;28;20444;-71
2021/11/07 10:48:15;;;;;;;11.00;2.17;;;;;;;;;;5099628;28;20455;-69
2021/11/07 10:53:32;;;;;;;6.80;2.17;;;;;;;;;;5096574;28;20550;-69
2021/11/07 10:56:03;;;;;;;9.13;3.60;;;;;;;;;;5116862;28;20455;-70
2021/11/07 10:58:35;;;;;;;10.57;2.30;;;;;;;;;;5117992;28;20451;-71
2021/11/07 11:01:08;;;;;;;15.47;3.13;;;;;;;;;;5111709;28;20459;-71
2021/11/07 11:03:46;;;;;;;5.13;2.53;;;;;;;;;;5089374;28;20516;-73
2021/11/07 11:06:17;;;;;;;6.30;3.10;;;;;;;;;;5095713;28;20448;-70
2021/11/07 11:08:55;;;;;;;18.37;5.03;;;;;;;;;;5096534;28;20856;-71
2021/11/07 11:11:49;;;;;;;10.37;3.20;;;;;;;;;;5109829;28;20577;-71
2021/11/07 11:14:22;;;;;;;10.57;3.60;;;;;;;;;;5096362;28;20494;-70
2021/11/07 11:16:56;;;;;;;9.70;3.20;;;;;;;;;;5095989;28;20735;-70
2021/11/07 11:19:56;;;;;;;9.73;3.30;;;;;;;;;;5095519;28;20859;-72
2021/11/07 11:22:46;;;;;;;8.33;2.30;;;;;;;;;;5106045;28;20500;-69
2021/11/07 11:25:37;;;;;;;6.67;2.80;;;;;;;;;;5101927;28;20444;-70
2021/11/07 11:28:14;;;;;;;8.90;2.40;;;;;;;;;;5103985;28;20436;-71
2021/11/07 11:33:40;;;;;;;8.87;2.33;;;;;;;;;;5111505;28;20738;-71
2021/11/07 11:36:21;;;;;;;11.83;3.23;;;;;;;;;;5100394;28;21031;-70
2021/11/07 11:38:57;;;;;;;7.07;2.40;;;;;;;;;;5100737;28;20546;-70
2021/11/07 11:41:40;;;;;;;15.20;3.10;;;;;;;;;;5100209;28;20469;-71
2021/11/07 11:44:08;;;;;;;7.80;2.60;;;;;;;;;;5100442;28;20469;-71
2021/11/07 11:46:44;;;;;;;4.30;1.80;;;;;;;;;;5098403;28;20478;-71
2021/11/07 11:52:28;;;;;;;8.70;2.10;;;;;;;;;;5088150;28;20839;-70
2021/11/07 11:57:53;;;;;;;10.80;3.13;;;;;;;;;;5105145;28;20490;-71
2021/11/07 12:00:42;;;;;;;5.90;2.37;;;;;;;;;;5101512;28;20870;-70
2021/11/07 12:03:39;;;;;;;7.30;2.90;;;;;;;;;;5111685;28;20431;-70
2021/11/07 12:06:33;;;;;;;3.63;2.13;;;;;;;;;;5101909;28;20572;-71
2021/11/07 12:12:15;;;;;;;6.37;2.20;;;;;;;;;;5102179;28;20462;-70
2021/11/07 12:15:07;;;;;;;5.37;2.70;;;;;;;;;;5100568;28;20813;-71
2021/11/07 12:17:39;;;;;;;9.10;2.40;;;;;;;;;;5099161;28;20459;-71
2021/11/07 12:20:22;;;;;;;7.33;2.80;;;;;;;;;;5098840;28;20455;-72
2021/11/07 12:22:51;;;;;;;4.67;2.03;;;;;;;;;;5114472;28;20438;-71
2021/11/07 12:25:32;;;;;;;7.93;2.03;;;;;;;;;;5109921;28;20446;-71
2021/11/07 12:28:01;;;;;;;9.10;2.30;;;;;;;;;;5099698;28;20455;-73
2021/11/07 12:30:40;;;;;;;15.10;4.00;;;;;;;;;;5098160;28;20459;-71
2021/11/07 12:33:12;;;;;;;11.03;4.50;;;;;;;;;;5118171;28;20539;-73
2021/11/07 12:35:43;;;;;;;6.80;3.37;;;;;;;;;;5103828;28;20488;-71
2021/11/07 12:41:16;;;;;;;11.57;4.70;;;;;;;;;;5098088;28;20517;-72
2021/11/07 12:43:45;;;;;;;10.73;2.57;;;;;;;;;;5105625;28;20447;-71
2021/11/07 12:49:08;;;;;;;8.70;2.93;;;;;;;;;;5096834;28;21155;-71
2021/11/07 12:51:43;;;;;;;7.93;3.33;;;;;;;;;;5096323;28;20459;-72
2021/11/07 12:54:13;;;;;;;11.27;5.23;;;;;;;;;;5097142;28;20479;-71
2021/11/07 12:56:51;;;;;;;5.33;2.23;;;;;;;;;;5108932;28;20965;-71
2021/11/07 12:59:26;;;;;;;10.33;2.70;;;;;;;;;;5097181;28;20466;-71
2021/11/07 13:02:11;;;;;;;12.77;2.53;;;;;;;;;;5105764;28;20453;-71
2021/11/07 13:04:42;;;;;;;8.03;3.20;;;;;;;;;;5100359;28;20451;-70
2021/11/07 13:07:27;;;;;;;13.60;3.00;;;;;;;;;;5098583;28;20451;-72
2021/11/07 13:10:04;;;;;;;11.93;3.53;;;;;;;;;;5097990;28;20702;-71
2021/11/07 13:12:41;;;;;;;24.87;8.63;;;;;;;;;;5096154;28;20475;-70
2021/11/07 13:21:30;;;;;;;8.93;4.23;;;;;;;;;;5085163;28;20439;-70
2021/11/07 13:27:11;;;;;;;11.77;4.37;;;;;;;;;;5098075;28;20430;-70
2021/11/07 13:29:48;;;;;;;23.87;8.63;;;;;;;;;;5100762;28;20523;-70
2021/11/07 13:32:32;;;;;;;10.30;3.73;;;;;;;;;;5098395;28;20447;-70
2021/11/07 13:35:04;;;;;;;12.77;5.17;;;;;;;;;;5096515;28;20889;-72
2021/11/07 13:37:51;;;;;;;18.47;6.77;;;;;;;;;;5100042;28;20509;-70
2021/11/07 13:40:25;;;;;;;14.00;5.17;;;;;;;;;;5101648;28;20459;-71
2021/11/07 13:42:53;;;;;;;16.10;6.00;;;;;;;;;;5101663;28;20440;-69
2021/11/07 13:45:35;;;;;;;20.23;4.80;;;;;;;;;;5110525;28;20878;-70
2021/11/07 13:48:13;;;;;;;6.00;3.07;;;;;;;;;;5097454;28;20455;-69
2021/11/07 13:50:43;;;;;;;3.60;2.50;;;;;;;;;;5107441;28;20468;-69
2021/11/07 13:53:18;;;;;;;5.37;2.90;;;;;;;;;;5117626;28;20486;-70
2021/11/07 13:55:49;;;;;;;8.50;3.47;;;;;;;;;;5115786;28;20522;-70
2021/11/07 13:58:20;;;;;;;14.00;6.17;;;;;;;;;;5116657;28;20454;-70
2021/11/07 14:00:53;;;;;;;11.70;4.40;;;;;;;;;;5114590;28;20457;-71
2021/11/07 14:03:26;;;;;;;8.80;6.30;;;;;;;;;;5107312;28;20458;-70
2021/11/07 14:06:02;;;;;;;12.90;4.87;;;;;;;;;;5106113;28;20464;-70
2021/11/07 14:08:45;;;;;;;14.97;5.33;;;;;;;;;;5111286;28;20488;-69
2021/11/07 14:11:16;;;;;;;10.40;3.33;;;;;;;;;;5107356;28;20962;-70
2021/11/07 14:13:46;;;;;;;14.33;5.27;;;;;;;;;;5096030;28;20488;-71
2021/11/07 14:16:18;;;;;;;13.27;7.13;;;;;;;;;;5099072;28;20447;-70
2021/11/07 14:18:46;;;;;;;7.10;4.20;;;;;;;;;;5106574;28;20542;-70
2021/11/07 14:21:15;;;;;;;10.63;5.60;;;;;;;;;;5106758;28;20455;-71
2021/11/07 14:23:46;;;;;;;12.83;5.30;;;;;;;;;;5099600;28;20456;-69
2021/11/07 14:26:20;;;;;;;7.20;5.30;;;;;;;;;;5114741;28;20545;-71
2021/11/07 14:29:04;;;;;;;15.03;8.43;;;;;;;;;;5099219;28;20924;-70
2021/11/07 14:31:49;;;;;;;11.23;6.33;;;;;;;;;;5096481;28;20455;-70
2021/11/07 14:34:22;;;;;;;13.77;7.00;;;;;;;;;;5096856;28;20479;-70
2021/11/07 14:37:02;;;;;;;16.83;8.67;;;;;;;;;;5095553;28;20469;-70
2021/11/07 14:39:40;;;;;;;14.17;12.67;;;;;;;;;;5099332;28;21086;-70
2021/11/07 14:42:32;;;;;;;16.50;13.20;;;;;;;;;;5095063;28;20490;-69
2021/11/07 14:45:31;;;;;;;22.63;9.57;;;;;;;;;;5094361;28;20513;-71
2021/11/07 14:48:11;;;;;;;13.63;12.57;;;;;;;;;;5103921;28;20520;-70
2021/11/07 14:50:57;;;;;;;14.53;6.73;;;;;;;;;;5095375;28;20523;-71
2021/11/07 14:53:27;;;;;;;7.80;4.03;;;;;;;;;;5115166;28;20490;-70
2021/11/07 14:56:07;;;;;;;16.53;10.13;;;;;;;;;;5113213;28;20446;-71
2021/11/07 14:58:58;;;;;;;12.20;10.60;;;;;;;;;;5115272;28;20451;-72
2021/11/07 15:01:35;;;;;;;7.90;5.53;;;;;;;;;;5113934;28;20516;-71
2021/11/07 15:04:17;;;;;;;17.50;12.20;;;;;;;;;;5098778;28;20919;-71
2021/11/07 15:07:01;;;;;;;11.20;9.07;;;;;;;;;;5094628;28;20451;-71
2021/11/07 15:09:33;;;;;;;10.10;9.13;;;;;;;;;;5104697;28;20446;-71
2021/11/07 15:15:18;;;;;;;13.00;11.07;;;;;;;;;;5096799;28;20467;-71
2021/11/07 15:17:51;;;;;;;17.10;7.23;;;;;;;;;;5113110;28;20459;-72
2021/11/07 15:20:34;;;;;;;12.40;10.83;;;;;;;;;;5114845;28;20470;-71
2021/11/07 15:23:11;;;;;;;19.10;11.67;;;;;;;;;;5097571;28;20750;-70
2021/11/07 15:25:44;;;;;;;10.20;9.40;;;;;;;;;;5097925;28;20447;-70
2021/11/07 15:28:15;;;;;;;14.90;13.47;;;;;;;;;;5097607;28;20893;-70
2021/11/07 15:30:44;;;;;;;14.00;10.70;;;;;;;;;;5098027;28;20847;-70
2021/11/07 15:33:13;;;;;;;10.17;6.47;;;;;;;;;;5097704;28;20451;-71
2021/11/07 15:35:51;;;;;;;13.67;7.80;;;;;;;;;;5118146;28;20521;-72
2021/11/07 15:38:21;;;;;;;13.70;7.10;;;;;;;;;;5106690;28;20520;-70
2021/11/07 15:40:55;;;;;;;11.67;6.80;;;;;;;;;;5098390;28;20462;-71
2021/11/07 15:43:25;;;;;;;11.30;10.20;;;;;;;;;;5097474;28;20783;-71
2021/11/07 15:46:02;;;;;;;14.37;10.17;;;;;;;;;;5098674;28;20465;-72
2021/11/07 15:48:35;;;;;;;10.37;7.00;;;;;;;;;;5097831;28;20945;-71
2021/11/07 15:51:14;;;;;;;13.20;7.40;;;;;;;;;;5110477;28;20465;-72
2021/11/07 15:53:52;;;;;;;10.20;7.10;;;;;;;;;;5100650;28;20487;-72
2021/11/07 15:56:29;;;;;;;9.77;5.77;;;;;;;;;;5111565;28;20896;-72
2021/11/07 16:01:48;;;;;;;24.83;8.70;;;;;;;;;;5105439;28;20516;-73
2021/11/07 16:04:36;;;;;;;17.13;9.03;;;;;;;;;;5108308;28;20464;-72
2021/11/07 16:07:14;;;;;;;9.77;8.30;;;;;;;;;;5097371;28;20561;-72
2021/11/07 16:09:58;;;;;;;11.43;9.47;;;;;;;;;;5099912;28;20455;-72
2021/11/07 16:12:38;;;;;;;11.03;8.03;;;;;;;;;;5101669;28;20945;-72
2021/11/07 16:15:23;;;;;;;7.30;6.30;;;;;;;;;;5118878;28;20945;-73
2021/11/07 16:17:55;;;;;;;8.20;6.37;;;;;;;;;;5104980;28;20747;-71
2021/11/07 16:20:27;;;;;;;11.10;10.23;;;;;;;;;;5115395;28;20478;-72